D/T METAR WX W/DIR W/SPE G/SPE TEMP DEWP
3/07/20 21:50 EGDY 032050Z AUTO 21013KT 9999 OVC009/// 15/14 Q1014 RERA SSW (210°) 15.0mph 15°C 14°C
3/07/20 20:50 EGDY 031950Z AUTO 20015KT 9999 BKN011/// 15/13 Q1014 SSW (200°) 17.3mph 15°C 13°C
3/07/20 19:50 EGDY 031850Z AUTO 20014KT 9999 SCT013/// BKN050/// 15/13 Q1014 RERA SSW (200°) 16.1mph 15°C 13°C
3/07/20 18:50 EGDY 031750Z AUTO 20013KT 9999 RA BKN015/// SCT037/// 15/13 Q1015 RA SSW (200°) 15.0mph 15°C 13°C
3/07/20 17:50 EGDY 031650Z AUTO 22013G25KT 9999 RA BKN021/// BKN050/// 15/13 Q1015 RA SW (220°) 15.0mph 28.8mph 15°C 13°C
3/07/20 16:50 EGDY 031550Z AUTO 21015KT 9999 BKN025/// 16/12 Q1015 RERA SSW (210°) 17.3mph 16°C 12°C
3/07/20 15:50 EGDY 031450Z AUTO 22013KT 9999 BKN028/// BKN070/// 18/12 Q1016 SW (220°) 15.0mph 18°C 12°C
3/07/20 14:50 EGDY 031350Z AUTO 20018KT 9999 BKN030/// SCT100/// 18/12 Q1016 SSW (200°) 20.7mph 18°C 12°C
3/07/20 13:50 EGDY 031250Z AUTO 21018KT 9999 FEW036/// BKN110/// 18/12 Q1016 SSW (210°) 20.7mph 18°C 12°C
3/07/20 12:50 EGDY 031150Z AUTO 21015KT 9999 SCT032/// 19/11 Q1016 SSW (210°) 17.3mph 19°C 11°C
3/07/20 11:50 EGDY 031050Z AUTO 21013KT 9999 BKN031/// 17/11 Q1017 SSW (210°) 15.0mph 17°C 11°C
3/07/20 10:50 EGDY 030950Z AUTO 22012KT 9999 BKN031/// 18/12 Q1017 SW (220°) 13.8mph 18°C 12°C
3/07/20 09:50 EGDY 030850Z AUTO 23011KT 9999 BKN027/// 16/11 Q1017 SW (230°) 12.7mph 16°C 11°C
3/07/20 08:50 EGDY 030750Z AUTO 22011KT 9999 FEW023/// BKN035/// 15/11 Q1017 SW (220°) 12.7mph 15°C 11°C
3/07/20 07:50 EGDY 030650Z AUTO 22007KT 9999 BKN035/// SCT140/// 14/11 Q1017 SW (220°) 8.1mph 14°C 11°C
3/07/20 06:50 EGDY 030550Z AUTO 20005KT 9999 BKN130/// 12/11 Q1017 SSW (200°) 5.8mph 12°C 11°C
3/07/20 05:50 EGDY 030450Z AUTO 21006KT 9999 NCD 11/10 Q1017 SSW (210°) 6.9mph 11°C 10°C
3/07/20 04:50 EGDY 030350Z AUTO 24007KT 9999 FEW170/// 12/10 Q1017 WSW (240°) 8.1mph 12°C 10°C
3/07/20 03:50 EGDY 030250Z AUTO 23005KT 9999 NCD 11/10 Q1017 SW (230°) 5.8mph 11°C 10°C
3/07/20 02:50 EGDY 030150Z AUTO 23005KT 9999 NCD 11/10 Q1017 SW (230°) 5.8mph 11°C 10°C
3/07/20 01:50 EGDY 030050Z 23004KT CAVOK 11/10 Q1017 NOSIG RMK BLU BLU SW (230°) 4.6mph 11°C 10°C
3/07/20 01:21 EGDY 030021Z 21005KT CAVOK 11/10 Q1017 NOSIG RMK BLU BLU SSW (210°) 5.8mph 11°C 10°C
3/07/20 00:50 EGDY 022350Z 22004KT CAVOK 11/10 Q1017 NOSIG RMK BLU BLU SW (220°) 4.6mph 11°C 10°C
3/07/20 00:20 EGDY 022320Z 26004KT CAVOK 11/10 Q1017 NOSIG RMK BLU BLU W (260°) 4.6mph 11°C 10°C
2/07/20 23:50 EGDY 022250Z 28005KT CAVOK 12/10 Q1017 NOSIG RMK BLU BLU W (280°) 5.8mph 12°C 10°C
2/07/20 23:20 EGDY 022220Z 27003KT 9999 FEW035 12/10 Q1017 NOSIG RMK BLU BLU W (270°) 3.5mph 12°C 10°C
2/07/20 22:50 EGDY 022150Z 28008KT 9999 FEW035 13/10 Q1017 NOSIG RMK BLU BLU W (280°) 9.2mph 13°C 10°C
2/07/20 22:21 EGDY 022121Z 27008KT 9999 FEW035 13/10 Q1017 NOSIG RMK BLU BLU W (270°) 9.2mph 13°C 10°C
2/07/20 21:50 EGDY 022050Z 26008KT 9999 FEW030 SCT200 14/10 Q1016 NOSIG RMK BLU BLU W (260°) 9.2mph 14°C 10°C
2/07/20 21:21 EGDY 022021Z 26008KT 9999 FEW030 SCT200 15/11 Q1016 NOSIG RMK BLU BLU W (260°) 9.2mph 15°C 11°C
2/07/20 20:50 EGDY 021950Z 33004KT 9999 FEW030 SCT200 17/09 Q1015 NOSIG RMK BLU BLU NNW (330°) 4.6mph 17°C 9°C
2/07/20 20:20 EGDY 021920Z 30008KT 9999 FEW025 18/10 Q1015 NOSIG RMK BLU BLU WNW (300°) 9.2mph 18°C 10°C
2/07/20 19:50 EGDY 021850Z 31010KT 9999 FEW025 SCT060 18/10 Q1015 NOSIG RMK BLU BLU NW (310°) 11.5mph 18°C 10°C
2/07/20 18:50 EGDY 021750Z 31012KT 9999 FEW025 18/11 Q1014 NOSIG RMK BLU BLU NW (310°) 13.8mph 18°C 11°C
2/07/20 18:22 EGDY 021722Z 31011KT 9999 FEW025 19/12 Q1014 NOSIG RMK BLU BLU NW (310°) 12.7mph 19°C 12°C
2/07/20 17:50 EGDY 021650Z 26010KT 9999 SCT028 19/13 Q1014 NOSIG RMK BLU BLU W (260°) 11.5mph 19°C 13°C
2/07/20 17:21 EGDY 021621Z 25008KT 9999 FEW024 SCT028 19/14 Q1014 NOSIG RMK BLU BLU WSW (250°) 9.2mph 19°C 14°C
2/07/20 16:50 EGDY 021550Z 26006KT 9999 FEW022 SCT026 17/14 Q1014 NOSIG RMK BLU BLU W (260°) 6.9mph 17°C 14°C
2/07/20 16:21 EGDY 021521Z 31007KT 9999 -SHRA FEW022 SCT026 17/13 Q1013 NOSIG RMK BLU BLU -SHRA NW (310°) 8.1mph 17°C 13°C
2/07/20 15:50 EGDY 021450Z 27007KT 9999 FEW022 SCT026 17/13 Q1013 NOSIG RMK BLU BLU W (270°) 8.1mph 17°C 13°C
2/07/20 15:20 EGDY 021420Z 28008KT 9999 -SHRA FEW022 BKN026 17/13 Q1013 NOSIG RMK BLU BLU -SHRA W (280°) 9.2mph 17°C 13°C
2/07/20 14:50 EGDY 021350Z 26008KT 9999 FEW024 BKN026 17/13 Q1013 NOSIG RMK BLU BLU W (260°) 9.2mph 17°C 13°C
2/07/20 14:21 EGDY 021321Z 27011KT 9999 FEW024 SCT026 19/13 Q1013 NOSIG RKM BLU BLU W (270°) 12.7mph 19°C 13°C
2/07/20 13:50 EGDY 021250Z 26008KT 9999 FEW024 BKN026 17/12 Q1013 NOSIG RMK BLU BLU W (260°) 9.2mph 17°C 12°C
2/07/20 13:22 EGDY 021222Z 31005KT 9999 FEW024 SCT026 18/13 Q1013 NOSIG RMK BLU BLU NW (310°) 5.8mph 18°C 13°C
2/07/20 12:50 EGDY 021150Z 29009KT 9999 VCSH SCT026 SCT040 17/13 Q1012 NOSIG RMK BLU BLU VCSH WNW (290°) 10.4mph 17°C 13°C
2/07/20 12:20 EGDY 021120Z 30009KT 9999 SCT026 SCT040 17/12 Q1012 TEMPO 7000 -SHRA RMK BLU TEMPO WHT WNW (300°) 10.4mph 17°C 12°C
2/07/20 11:50 EGDY 021050Z 27013KT 9999 SCT026 SCT035 17/12 Q1012 TEMPO 7000 -SHRA RMK BLU TEMPO WHT W (270°) 15.0mph 17°C 12°C
2/07/20 11:21 EGDY 021021Z 26014KT 9999 SCT024 SCT035 17/11 Q1011 BECMG SCT025 RMK WHT BECMG BLU W (260°) 16.1mph 17°C 11°C
2/07/20 10:50 EGDY 020950Z 27013KT 9999 SCT024 SCT035 17/12 Q1011 BECMG SCT025 RMK WHT BECMG BLU W (270°) 15.0mph 17°C 12°C
2/07/20 10:20 EGDY 020920Z 26012KT 9999 SCT022 SCT035 16/11 Q1011 TEMPO 7000 -SHRA RMK WHT TEMPO WHT W (260°) 13.8mph 16°C 11°C
2/07/20 09:50 EGDY 020850Z 26011KT 9999 VCSH SCT020 SCT035 17/11 Q1011 WHT VCSH W (260°) 12.7mph 17°C 11°C
2/07/20 08:50 EGDY 020750Z 25012KT 9999 BKN020 16/12 Q1011 WHT WSW (250°) 13.8mph 16°C 12°C
2/07/20 07:50 EGDY 020650Z 23007KT 9999 FEW018 SCT060 15/12 Q1010 BLU SW (230°) 8.1mph 15°C 12°C
2/07/20 06:50 EGDY 020550Z 22006KT 9999 SCT017 BKN040 14/12 Q1010 NOSIG RMK WHT BECMG WHT SW (220°) 6.9mph 14°C 12°C
2/07/20 05:50 EGDY 020450Z AUTO 22008KT 9999 FEW017/// BKN050/// 13/11 Q1009 SW (220°) 9.2mph 13°C 11°C
2/07/20 04:50 EGDY 020350Z 21008KT 9999 FEW014 SCT017 BKN040 13/11 Q1009 NOSIG RMK WHT BECMG WHT SSW (210°) 9.2mph 13°C 11°C
2/07/20 03:50 EGDY 020250Z AUTO 21006KT 9999 BKN043/// 13/11 Q1009 SSW (210°) 6.9mph 13°C 11°C
2/07/20 02:50 EGDY 020150Z AUTO 21008KT 9999 FEW037/// 12/11 Q1009 SSW (210°) 9.2mph 12°C 11°C
2/07/20 01:50 EGDY 020050Z AUTO 23005KT 9999 SCT033/// SCT050/// 12/10 Q1009 SW (230°) 5.8mph 12°C 10°C
2/07/20 00:50 EGDY 012350Z AUTO 23005KT 9999 NCD 12/10 Q1009 SW (230°) 5.8mph 12°C 10°C
2/07/20 00:20 EGDY 012320Z 22005KT 9999 FEW035 11/10 Q1009 NOSIG RMK BLU BLU SW (220°) 5.8mph 11°C 10°C
1/07/20 23:50 EGDY 012250Z 21005KT 9999 FEW035 11/09 Q1009 NOSIG RMK BLU BLU SSW (210°) 5.8mph 11°C 9°C
1/07/20 23:29 EGDY 012229Z 22005KT 9999 FEW035 12/10 Q1009 NOSIG RMK BLU BLU SW (220°) 5.8mph 12°C 10°C
1/07/20 22:50 EGDY 012150Z 19002KT 9999 FEW035 13/10 Q1009 NOSIG RMK BLU BLU S (190°) 2.3mph 13°C 10°C
1/07/20 22:22 EGDY 012122Z 21003KT CAVOK 13/11 Q1009 NOSIG RMK BLU BLU SSW (210°) 3.5mph 13°C 11°C
1/07/20 21:50 EGDY 012050Z 26003KT 9999 FEW020 SCT050 14/11 Q1009 NOSIG RMK BLU BLU W (260°) 3.5mph 14°C 11°C
1/07/20 21:20 EGDY 012020Z 30004KT 9999 FEW020 SCT050 15/12 Q1008 NOSIG RMK BLU BLU WNW (300°) 4.6mph 15°C 12°C
1/07/20 20:50 EGDY 011950Z 32005KT 9999 FEW020 SCT050 16/13 Q1008 NOSIG RMK BLU BLU NW (320°) 5.8mph 16°C 13°C
1/07/20 20:21 EGDY 011921Z 33005KT 9999 FEW012 SCT050 16/13 Q1008 NOSIG RMK BLU BLU NNW (330°) 5.8mph 16°C 13°C
1/07/20 19:50 EGDY 011850Z 32006KT 9999 FEW012 SCT050 16/13 Q1007 NOSIG RMK BLU BLU NW (320°) 6.9mph 16°C 13°C
1/07/20 19:20 EGDY 011820Z 31006KT 9999 FEW012 BKN050 16/13 Q1007 NOSIG RMK BLU BLU NW (310°) 6.9mph 16°C 13°C
1/07/20 18:50 EGDY 011750Z 33005KT 9999 FEW012 SCT020 BKN050 16/14 Q1007 BECMG 9999 NSW SCT035 RMK WHT BECMG BLU NNW (330°) 5.8mph 16°C 14°C
1/07/20 18:21 EGDY 011721Z 34002KT 7000 -SHRA FEW012 SCT020 BKN050 16/14 Q1007 BECMG 9999 NSW SCT035 RMK WHT BECMG BLU -SHRA NNW (340°) 2.3mph 16°C 14°C
1/07/20 17:50 EGDY 011650Z 36004KT 5000 -SHRA FEW012 BKN020 BKN050 15/14 Q1007 TEMPO 4000 SHRA BKN024 RMK WHT TEMPO GRN -SHRA N (360°) 4.6mph 15°C 14°C
1/07/20 17:21 EGDY 011621Z 34005KT 5000 -SHRA FEW012 BKN020 BKN050 15/14 Q1007 TEMPO 4000 SHRA BKN024 RMK WHT TEMPO GRN -SHRA NNW (340°) 5.8mph 15°C 14°C
1/07/20 16:50 EGDY 011550Z 31003KT 6000 -SHRA FEW010 BKN024 BKN050 15/14 Q1007 NOSIG RMK WHT WHT -SHRA NW (310°) 3.5mph 15°C 14°C
1/07/20 16:21 EGDY 011521Z 33006KT 4000 -SHRA FEW012 SCT020 BKN050 16/15 Q1007 TEMPO 7000 FEW017 SCT020 RMK GRN TEMPO WHT -SHRA NNW (330°) 6.9mph 16°C 15°C
1/07/20 15:50 EGDY 011450Z 27006KT 5000 -SHRA FEW012 SCT020 BKN024 16/15 Q1007 TEMPO 4000 SHRA RMK WHT TEMPO GRN -SHRA W (270°) 6.9mph 16°C 15°C
1/07/20 15:20 EGDY 011420Z 26008KT 4000 SHRA FEW012 BKN024 18/14 Q1006 BECMG 7000 FEW012 BKN024 RMK GRN BECMG WHT SHRA W (260°) 9.2mph 18°C 14°C
1/07/20 14:50 EGDY 011350Z 28007KT 9999 -SHRA FEW012 BKN024 BKN050 18/14 Q1006 TEMPO 7000 SHRA SCT020TCU RMK WHT TEMPO WHT -SHRA W (280°) 8.1mph 18°C 14°C
1/07/20 14:20 EGDY 011320Z 26006KT 9999 FEW012 BKN024 BKN050 18/14 Q1006 TEMPO 7000 SHRA SCT020TCU RMK WHT TEMPO WHT W (260°) 6.9mph 18°C 14°C
1/07/20 13:50 EGDY 011250Z 21009KT 9999 FEW012 SCT024 BKN050 18/15 Q1006 TEMPO 7000 SHRA SCT020TCU RMIK WHT TEMPO WHT SSW (210°) 10.4mph 18°C 15°C
1/07/20 13:22 EGDY 011222Z 21010KT 9999 FEW012 BKN024 BKN050 17/15 Q1006 TEMPO 7000 SHRA SCT020TCU RMK WHT TEMPO WHT SSW (210°) 11.5mph 17°C 15°C
1/07/20 12:50 EGDY 011150Z 20012KT 9999 -SHRA SCT020 BKN024 BKN045 17/14 Q1006 TEMPO 7000 SHRA SCT020TCU RMK WHT TEMPO WHT -SHRA SSW (200°) 13.8mph 17°C 14°C
1/07/20 12:23 EGDY 011123Z 20013KT 9999 FEW012 BKN024 BKN045 18/14 Q1005 TEMPO 7000 SHRA SCT020TCU RMK WHT TMEPO WHT SSW (200°) 15.0mph 18°C 14°C
1/07/20 11:50 EGDY 011050Z 22010KT 9999 BKN024 BKN050 18/14 Q1005 TEMPO 7000 SHRA SCT020TCU RMK WHT TEMPO WHT SW (220°) 11.5mph 18°C 14°C
1/07/20 11:23 EGDY 011023Z 25011KT 9999 BKN024 18/13 Q1005 TEMPO 7000 SHRA SCT020TCU RMK WHT TEMPO WHT WSW (250°) 12.7mph 18°C 13°C
1/07/20 10:50 EGDY 010950Z 26010KT 9999 FEW012 BKN022 18/14 Q1005 NOSIG RMK WHT WHT W (260°) 11.5mph 18°C 14°C
1/07/20 10:20 EGDY 010920Z 24009KT 9999 FEW012 BKN022 18/13 Q1005 NOSIG RMK WHT WHT WSW (240°) 10.4mph 18°C 13°C
1/07/20 09:50 EGDY 010850Z 23009KT 9999 FEW012 SCT022 BKN050 17/13 Q1005 NOSIG RMK WHT WHT SW (230°) 10.4mph 17°C 13°C
1/07/20 09:20 EGDY 010820Z 23007KT 9999 FEW012 BKN050 17/13 Q1005 TEMPO SHRA SCT020TCU RMK BLU TEMPO WHT SW (230°) 8.1mph 17°C 13°C
1/07/20 08:50 EGDY 010750Z 22006KT 9999 FEW012 BKN050 16/13 Q1005 TEMPO SHRA SCT020TCU RMK BLU TEMPO WHT SW (220°) 6.9mph 16°C 13°C
1/07/20 08:20 EGDY 010720Z 22007KT 9999 -DZ FEW014 BKN060 16/13 Q1005 BLU -DZ SW (220°) 8.1mph 16°C 13°C
1/07/20 07:50 EGDY 010650Z 23006KT 9999 FEW014 BKN060 15/13 Q1005 BLU SW (230°) 6.9mph 15°C 13°C
1/07/20 06:50 EGDY 010550Z 21005KT 9999 FEW010 SCT020 BKN060 15/13 Q1004 WHT SSW (210°) 5.8mph 15°C 13°C